createdAt,value
2018-01-27T06:15:42.897Z,220.85
2018-01-27T06:18:09.358Z,238.65
2018-01-27T06:20:35.959Z,235.75
2018-01-27T06:23:02.399Z,246.50
2018-01-27T06:25:28.984Z,231.20
2018-01-27T06:27:55.492Z,235.02
2018-01-27T06:30:22.068Z,239.15
2018-01-27T06:32:48.623Z,233.82
2018-01-27T06:35:15.126Z,246.82
2018-01-27T06:37:43.200Z,232.55
2018-01-27T06:40:09.745Z,238.40
2018-01-27T06:42:36.270Z,246.18
2018-01-27T06:45:02.888Z,237.32
2018-01-27T06:47:29.272Z,246.30
2018-01-27T06:49:55.819Z,238.43
2018-01-27T06:52:22.672Z,227.70
2018-01-27T06:54:49.301Z,214.40
2018-01-27T06:57:15.805Z,228.73
2018-01-27T06:59:42.328Z,221.57
2018-01-27T07:02:08.791Z,222.02
2018-01-27T07:04:35.440Z,220.45
2018-01-27T07:07:02.171Z,224.68
2018-01-27T07:09:28.800Z,229.85
2018-01-27T07:11:55.264Z,230.10
2018-01-27T07:14:22.388Z,225.45
2018-01-27T07:16:48.976Z,250.55
2018-01-27T07:19:15.544Z,245.60
2018-01-27T07:21:42.843Z,273.02
2018-01-27T07:24:09.810Z,267.95
2018-01-27T07:26:36.356Z,267.83
2018-01-27T07:29:02.922Z,247.77
2018-01-27T07:31:29.411Z,245.27
2018-01-27T07:33:55.956Z,263.20
2018-01-27T07:36:23.457Z,242.60
2018-01-27T07:38:49.930Z,267.13
2018-01-27T07:41:18.116Z,249.20
2018-01-27T07:43:45.817Z,242.18
2018-01-27T07:46:12.576Z,244.57
2018-01-27T07:48:39.125Z,256.65
2018-01-27T07:51:05.664Z,249.73
2018-01-27T07:53:33.056Z,219.45
2018-01-27T07:56:00.060Z,213.65
2018-01-27T07:58:26.542Z,207.30
2018-01-27T08:00:53.080Z,204.30
2018-01-27T08:03:19.861Z,202.70
2018-01-27T08:05:46.476Z,197.70
2018-01-27T08:08:12.944Z,185.73
2018-01-27T08:10:39.888Z,186.65
2018-01-27T08:13:06.364Z,195.45
2018-01-27T08:15:32.924Z,195.95
2018-01-27T08:17:59.717Z,199.93
2018-01-27T08:20:26.291Z,189.60
2018-01-27T08:22:52.751Z,185.00
2018-01-27T08:25:19.405Z,193.32
2018-01-27T08:27:45.825Z,191.50
2018-01-27T08:30:12.686Z,188.07
2018-01-27T08:32:39.015Z,185.98
2018-01-27T08:35:05.481Z,186.77
2018-01-27T08:37:32.382Z,184.25
2018-01-27T08:39:58.852Z,157.02
2018-01-27T08:42:25.352Z,153.65
2018-01-27T08:44:52.207Z,155.52
2018-01-27T08:47:19.634Z,164.98
2018-01-27T08:49:46.093Z,167.32
2018-01-27T08:52:13.354Z,180.23
2018-01-27T08:54:39.887Z,181.80
2018-01-27T08:57:06.716Z,195.95
2018-01-27T08:59:33.232Z,212.25
2018-01-27T09:02:00.131Z,220.25
2018-01-27T09:04:26.622Z,225.98
2018-01-27T09:06:53.514Z,222.93
2018-01-27T09:09:20.327Z,226.20
2018-01-27T09:11:46.896Z,229.87
2018-01-27T09:14:14.361Z,223.50
2018-01-27T09:16:40.860Z,214.52
2018-01-27T09:19:08.636Z,210.55
2018-01-27T09:21:35.155Z,208.18
2018-01-27T09:24:01.700Z,203.57
2018-01-27T09:26:28.234Z,205.93
2018-01-27T09:28:54.796Z,196.77
2018-01-27T09:31:21.259Z,188.70
2018-01-27T09:33:47.854Z,195.52
2018-01-27T09:36:14.400Z,191.23
2018-01-27T09:38:41.192Z,188.17
2018-01-27T09:41:08.010Z,186.50
2018-01-27T09:43:34.626Z,194.07
2018-01-27T09:46:01.176Z,184.37
2018-01-27T09:48:27.635Z,169.10
2018-01-27T09:50:54.220Z,169.33
2018-01-27T09:53:20.772Z,170.47
2018-01-27T09:55:47.272Z,163.67
2018-01-27T09:58:14.171Z,163.80
2018-01-27T10:00:40.672Z,170.80
2018-01-27T10:03:08.212Z,176.87
2018-01-27T10:05:34.636Z,159.20
2018-01-27T10:08:02.044Z,167.97
2018-01-27T10:10:28.587Z,166.37
2018-01-27T10:12:55.229Z,169.60
2018-01-27T10:15:21.699Z,173.33
2018-01-27T10:17:48.192Z,176.55
2018-01-27T10:20:14.739Z,174.95
2018-01-27T10:22:41.301Z,180.60
2018-01-27T10:25:07.727Z,175.10
2018-01-27T10:27:34.808Z,179.20
2018-01-27T10:30:01.227Z,180.00
2018-01-27T10:32:27.717Z,174.50
2018-01-27T10:34:54.473Z,172.60
2018-01-27T10:37:20.886Z,180.20
2018-01-27T10:39:47.440Z,179.30
2018-01-27T10:42:13.975Z,174.93
2018-01-27T10:44:40.756Z,175.30
2018-01-27T10:47:07.245Z,184.45
2018-01-27T10:49:33.817Z,173.55
2018-01-27T10:52:00.412Z,228.62
2018-01-27T10:54:27.142Z,174.25
2018-01-27T10:56:54.070Z,170.60
2018-01-27T10:59:21.539Z,177.93
2018-01-27T11:01:47.983Z,257.75
2018-01-27T11:04:15.480Z,183.23
2018-01-27T11:06:42.300Z,166.68
2018-01-27T11:09:08.828Z,158.07
2018-01-27T11:11:35.372Z,162.85
2018-01-27T11:14:01.871Z,162.62
2018-01-27T11:16:32.379Z,155.10
2018-01-27T11:18:59.940Z,161.07
2018-01-27T11:21:26.383Z,154.32
2018-01-27T11:23:53.569Z,157.18
2018-01-27T11:26:20.176Z,162.20
2018-01-27T11:28:46.740Z,162.15
2018-01-27T11:31:13.194Z,160.05
2018-01-27T11:33:39.775Z,160.95
2018-01-27T11:36:06.248Z,165.57
2018-01-27T11:38:33.436Z,163.48
2018-01-27T11:40:59.961Z,153.65
2018-01-27T11:43:26.496Z,152.30
2018-01-27T11:45:52.988Z,156.73
2018-01-27T11:48:19.848Z,151.50
2018-01-27T11:50:46.196Z,152.60
2018-01-27T11:53:12.698Z,165.48
2018-01-27T11:55:39.191Z,163.32
2018-01-27T11:58:05.725Z,150.25
2018-01-27T12:00:32.151Z,154.55
2018-01-27T12:02:58.803Z,156.63
2018-01-27T12:05:25.364Z,152.00
2018-01-27T12:07:51.816Z,160.73
2018-01-27T12:10:18.404Z,154.65
2018-01-27T12:12:44.956Z,169.10
2018-01-27T12:15:11.504Z,151.30
2018-01-27T12:17:38.328Z,150.90
2018-01-27T12:20:05.216Z,155.25
2018-01-27T12:22:32.300Z,154.77
2018-01-27T12:24:58.835Z,144.40
2018-01-27T12:27:25.680Z,149.50
2018-01-27T12:29:52.220Z,147.90
2018-01-27T12:32:18.691Z,142.50
2018-01-27T12:34:46.319Z,151.82
2018-01-27T12:37:12.715Z,145.70
2018-01-27T12:39:39.263Z,150.00
2018-01-27T12:42:05.823Z,150.55
2018-01-27T12:44:32.345Z,150.73
2018-01-27T12:46:58.888Z,147.77
2018-01-27T12:49:25.683Z,158.15
2018-01-27T12:51:52.568Z,142.70
2018-01-27T12:54:19.176Z,141.05
2018-01-27T12:56:45.580Z,139.43
2018-01-27T12:59:12.166Z,145.75
2018-01-27T13:01:38.679Z,147.32
2018-01-27T13:04:05.207Z,148.57
2018-01-27T13:06:31.800Z,152.00
2018-01-27T13:08:58.311Z,149.82
2018-01-27T13:11:24.800Z,143.30
2018-01-27T13:13:51.359Z,163.60
2018-01-27T13:16:17.895Z,167.13
2018-01-27T13:18:44.428Z,158.35
2018-01-27T13:21:11.041Z,172.18
2018-01-27T13:23:37.829Z,168.35
2018-01-27T13:26:04.323Z,167.37
2018-01-27T13:28:30.904Z,164.52
2018-01-27T13:30:57.451Z,173.70
2018-01-27T13:33:23.912Z,166.48
2018-01-27T13:35:50.532Z,171.07
2018-01-27T13:38:17.050Z,170.25
2018-01-27T13:40:43.541Z,180.87
2018-01-27T13:43:10.164Z,176.12
2018-01-27T13:45:36.599Z,182.45
2018-01-27T13:48:03.189Z,184.70
2018-01-27T13:50:29.628Z,190.18
2018-01-27T13:52:56.240Z,180.73
2018-01-27T13:55:22.776Z,176.65
2018-01-27T13:57:49.248Z,187.50
2018-01-27T14:00:16.056Z,190.73
2018-01-27T14:02:42.708Z,192.52
2018-01-27T14:05:09.478Z,187.10
2018-01-27T14:07:36.015Z,188.50
2018-01-27T14:10:02.600Z,184.85
2018-01-27T14:12:29.425Z,184.85
2018-01-27T14:14:55.940Z,194.98
2018-01-27T14:17:22.381Z,201.15
2018-01-27T14:19:49.939Z,203.18
2018-01-27T14:22:16.769Z,191.25
2018-01-27T14:24:43.386Z,195.65
2018-01-27T14:27:09.844Z,199.27
2018-01-27T14:29:36.401Z,194.43
2018-01-27T14:32:02.944Z,205.70
2018-01-27T14:34:29.435Z,200.60
2018-01-27T14:36:56.336Z,206.50
2018-01-27T14:39:22.819Z,229.13
2018-01-27T14:41:49.381Z,211.20
2018-01-27T14:44:15.928Z,218.23
2018-01-27T14:46:42.804Z,228.50
2018-01-27T14:49:09.304Z,244.10
2018-01-27T14:51:35.856Z,378.33
2018-01-27T14:54:02.377Z,396.90
2018-01-27T14:56:29.028Z,403.62
2018-01-27T14:58:56.344Z,279.65
2018-01-27T15:01:23.175Z,249.77
2018-01-27T15:03:49.726Z,430.33
2018-01-27T15:06:16.236Z,288.23
2018-01-27T15:08:43.191Z,395.08
2018-01-27T15:11:10.597Z,297.55
2018-01-27T15:13:37.079Z,318.40
2018-01-27T15:16:04.232Z,245.40
2018-01-27T15:18:31.379Z,321.90
2018-01-27T15:20:58.345Z,276.23
2018-01-27T15:23:24.770Z,262.65
2018-01-27T15:25:51.651Z,224.62
2018-01-27T15:28:18.256Z,211.32
2018-01-27T15:30:44.719Z,219.80
2018-01-27T15:33:11.273Z,217.15
2018-01-27T15:35:37.748Z,222.57
2018-01-27T15:38:04.264Z,226.00
2018-01-27T15:40:30.811Z,213.62
2018-01-27T15:42:57.698Z,217.27
2018-01-27T15:45:24.207Z,227.75
2018-01-27T15:47:50.788Z,224.43
2018-01-27T15:50:18.840Z,231.02
2018-01-27T15:52:45.404Z,212.43
2018-01-27T15:55:11.976Z,209.95
2018-01-27T15:57:38.764Z,220.23
2018-01-27T16:00:05.243Z,218.15
2018-01-27T16:02:31.838Z,192.68
2018-01-27T16:04:58.356Z,210.93
2018-01-27T16:07:24.886Z,202.93
2018-01-27T16:09:51.428Z,206.30
2018-01-27T16:12:17.957Z,214.80
2018-01-27T16:14:44.451Z,204.10
2018-01-27T16:17:11.039Z,214.52
2018-01-27T16:19:37.583Z,198.23
2018-01-27T16:22:04.143Z,203.27
2018-01-27T16:24:30.588Z,216.32
2018-01-27T16:26:57.151Z,217.95
2018-01-27T16:29:23.527Z,219.18
2018-01-27T16:31:49.888Z,217.20
2018-01-27T16:34:16.518Z,231.52
2018-01-27T16:36:43.040Z,245.12
2018-01-27T16:39:09.493Z,223.40
2018-01-27T16:41:36.084Z,258.45
2018-01-27T16:44:02.598Z,238.20
2018-01-27T16:46:29.184Z,231.23
2018-01-27T16:48:55.675Z,243.68
2018-01-27T16:51:22.149Z,257.87
2018-01-27T16:53:48.716Z,251.25
2018-01-27T16:56:15.231Z,256.10
2018-01-27T16:58:41.869Z,285.67
2018-01-27T17:01:08.300Z,328.08
2018-01-27T17:03:34.896Z,362.12
2018-01-27T17:06:01.266Z,283.23
2018-01-27T17:08:27.910Z,260.52
2018-01-27T17:10:54.573Z,252.25
2018-01-27T17:13:21.085Z,229.00
2018-01-27T17:15:47.484Z,231.18
2018-01-27T17:18:14.410Z,235.18
2018-01-27T17:20:40.878Z,229.85
2018-01-27T17:23:07.538Z,226.43
2018-01-27T17:25:33.968Z,227.07
2018-01-27T17:28:00.492Z,229.93
2018-01-27T17:30:27.140Z,236.73
2018-01-27T17:32:53.572Z,201.68
2018-01-27T17:35:20.147Z,199.10
2018-01-27T17:37:46.640Z,192.87
2018-01-27T17:40:13.231Z,176.87
2018-01-27T17:42:39.561Z,172.23
2018-01-27T17:45:06.796Z,153.55
2018-01-27T17:47:33.428Z,171.00
2018-01-27T17:49:59.932Z,144.35
2018-01-27T17:52:26.275Z,162.57
2018-01-27T17:54:52.784Z,163.23
2018-01-27T17:57:19.330Z,173.68
2018-01-27T17:59:45.805Z,227.75
2018-01-27T18:02:12.353Z,255.27
2018-01-27T18:04:38.964Z,243.10
2018-01-27T18:07:05.412Z,259.15
2018-01-27T18:09:31.903Z,282.05
2018-01-27T18:11:58.472Z,283.75
2018-01-27T18:14:24.971Z,339.52
2018-01-27T18:16:51.862Z,382.67
2018-01-27T18:19:18.419Z,486.80
2018-01-27T18:21:44.872Z,417.15
2018-01-27T18:24:11.488Z,411.38
2018-01-27T18:26:37.966Z,474.67
2018-01-27T18:29:04.771Z,471.80
2018-01-27T18:31:31.700Z,433.55
2018-01-27T18:33:58.168Z,390.90
2018-01-27T18:36:24.754Z,387.90
2018-01-27T18:38:51.300Z,428.50
2018-01-27T18:41:17.776Z,446.75
2018-01-27T18:43:44.315Z,453.27
2018-01-27T18:46:10.835Z,434.08
2018-01-27T18:48:37.485Z,420.20
2018-01-27T18:51:03.915Z,471.25
2018-01-27T18:53:31.440Z,470.83
2018-01-27T18:55:57.907Z,547.90
2018-01-27T18:58:24.780Z,565.15
2018-01-27T19:00:51.165Z,584.87
2018-01-27T19:03:17.515Z,618.35
2018-01-27T19:05:43.924Z,579.53
2018-01-27T19:08:10.356Z,520.55
2018-01-27T19:10:37.203Z,432.00
2018-01-27T19:13:03.692Z,379.50
2018-01-27T19:15:30.192Z,335.65
2018-01-27T19:17:56.715Z,324.42
2018-01-27T19:20:23.254Z,325.87
2018-01-27T19:22:49.809Z,299.05
2018-01-27T19:25:17.361Z,289.38
2018-01-27T19:27:44.140Z,389.30
2018-01-27T19:30:10.625Z,399.85
2018-01-27T19:32:37.020Z,384.42
2018-01-27T19:35:04.232Z,361.08
2018-01-27T19:37:31.214Z,402.77
2018-01-27T19:39:57.699Z,383.48
2018-01-27T19:42:24.265Z,406.73
2018-01-27T19:44:50.764Z,357.77
2018-01-27T19:47:17.322Z,385.45
2018-01-27T19:49:43.876Z,413.20
2018-01-27T19:52:10.258Z,423.27
2018-01-27T19:54:36.896Z,445.62
2018-01-27T19:57:03.751Z,447.25
2018-01-27T19:59:30.300Z,481.63
2018-01-27T20:01:56.685Z,519.30
2018-01-27T20:04:23.027Z,504.87
2018-01-27T20:06:49.644Z,516.20
2018-01-27T20:09:16.104Z,502.45
2018-01-27T20:11:42.627Z,488.33
2018-01-27T20:14:09.164Z,495.85
2018-01-27T20:16:35.755Z,517.42
2018-01-27T20:19:03.217Z,475.48
2018-01-27T20:21:29.580Z,485.75
2018-01-27T20:23:56.046Z,511.80
2018-01-27T20:26:22.532Z,501.75
2018-01-27T20:28:49.363Z,503.60
2018-01-27T20:31:15.940Z,497.33
2018-01-27T20:33:42.401Z,481.00
2018-01-27T20:36:08.951Z,470.12
2018-01-27T20:38:35.695Z,477.10
2018-01-27T20:41:02.372Z,491.98
2018-01-27T20:43:29.252Z,467.80
2018-01-27T20:45:55.672Z,486.98
2018-01-27T20:48:22.206Z,489.20
2018-01-27T20:50:49.152Z,475.27
2018-01-27T20:53:15.684Z,498.48
2018-01-27T20:55:42.204Z,472.85
2018-01-27T20:58:08.951Z,479.90
2018-01-27T21:00:35.528Z,445.52
2018-01-27T21:03:02.012Z,489.13
2018-01-27T21:05:28.939Z,482.38
2018-01-27T21:07:55.807Z,472.50
2018-01-27T21:10:22.257Z,491.92
2018-01-27T21:12:48.792Z,520.35
2018-01-27T21:15:15.328Z,540.40
2018-01-27T21:17:41.856Z,587.35
2018-01-27T21:20:08.484Z,608.17
2018-01-27T21:22:35.856Z,658.30
2018-01-27T21:25:02.248Z,666.30
2018-01-27T21:27:28.652Z,669.17
2018-01-27T21:29:55.206Z,686.88
2018-01-27T21:32:21.743Z,717.42
2018-01-27T21:34:48.280Z,740.33
2018-01-27T21:37:14.747Z,675.90
2018-01-27T21:39:41.346Z,701.28
2018-01-27T21:42:07.812Z,660.67
2018-01-27T21:44:34.435Z,668.87
2018-01-27T21:47:01.823Z,720.83
2018-01-27T21:49:28.351Z,728.20
2018-01-27T21:51:55.219Z,722.10
2018-01-27T21:54:22.047Z,701.50
2018-01-27T21:56:48.704Z,738.30
2018-01-27T21:59:16.024Z,697.83
2018-01-27T22:01:42.591Z,664.63
2018-01-27T22:04:09.147Z,688.42
2018-01-27T22:06:35.738Z,691.90
2018-01-27T22:09:02.336Z,686.40
2018-01-27T22:11:29.115Z,673.95
2018-01-27T22:13:55.555Z,662.05
2018-01-27T22:16:22.081Z,641.38
2018-01-27T22:18:48.599Z,640.42
2018-01-27T22:21:15.260Z,614.42
2018-01-27T22:23:41.760Z,580.78
2018-01-27T22:26:08.216Z,570.22
2018-01-27T22:28:35.080Z,519.22
2018-01-27T22:31:01.617Z,516.35
2018-01-27T22:33:28.236Z,515.97
2018-01-27T22:35:54.679Z,520.40
2018-01-27T22:38:21.519Z,494.17
2018-01-27T22:40:48.047Z,507.15
2018-01-27T22:43:14.595Z,508.90
2018-01-27T22:45:41.548Z,479.25
2018-01-27T22:48:07.984Z,470.40
2018-01-27T22:50:34.499Z,508.17
2018-01-27T22:53:02.408Z,481.63
2018-01-27T22:55:28.800Z,483.50
2018-01-27T23:00:50.622Z,494.95
2018-01-27T23:03:17.835Z,458.55
2018-01-27T23:05:44.420Z,462.88
2018-01-27T23:08:10.955Z,440.05
2018-01-27T23:10:37.507Z,437.60
2018-01-27T23:13:04.096Z,448.00
2018-01-27T23:15:30.676Z,426.77
2018-01-27T23:17:57.096Z,419.62
2018-01-27T23:20:23.636Z,408.95
2018-01-27T23:22:50.235Z,403.77
2018-01-27T23:25:16.727Z,412.23
2018-01-27T23:27:43.304Z,410.25
2018-01-27T23:30:10.099Z,412.75
2018-01-27T23:32:36.431Z,396.95
2018-01-27T23:35:02.854Z,445.48
2018-01-27T23:37:29.472Z,514.72
2018-01-27T23:39:55.995Z,547.45
2018-01-27T23:42:22.560Z,516.70
2018-01-27T23:44:49.019Z,533.03
2018-01-27T23:47:15.524Z,525.03
2018-01-27T23:49:42.060Z,503.95
2018-01-27T23:52:08.505Z,504.87
2018-01-27T23:54:35.436Z,487.20
2018-01-27T23:57:02.026Z,474.45
2018-01-27T23:59:28.546Z,427.20
